Wetterdaten: Woche 18.07.05 - 24.07.05 (KW29)
Datum Zeit Temperatur Luftfeuchte Luftdruck Niederschlag Windrichtung Wind
18.07.2005 00:00 18,6 C 66 % 1015 hPa 0,0 l/m W-NW 0,5 km/h (0 Bft)
18.07.2005 01:00 18,1 C 69 % 1015 hPa 0,0 l/m W-NW 0,9 km/h (0 Bft)
18.07.2005 02:00 17,7 C 70 % 1015 hPa 0,0 l/m NW 5,0 km/h (1 Bft)
18.07.2005 03:00 17,2 C 72 % 1014 hPa 0,0 l/m NW 0,2 km/h (0 Bft)
18.07.2005 04:00 16,3 C 76 % 1013 hPa 0,0 l/m W-NW 0,7 km/h (0 Bft)
18.07.2005 05:00 15,7 C 80 % 1013 hPa 0,0 l/m W 1,6 km/h (1 Bft)
18.07.2005 06:00 15,9 C 82 % 1013 hPa 0,0 l/m S-SW 4,6 km/h (1 Bft)
18.07.2005 07:00 16,8 C 81 % 1012 hPa 0,0 l/m NW 5,3 km/h (1 Bft)
18.07.2005 08:00 17,8 C 79 % 1012 hPa 0,0 l/m W 8,5 km/h (2 Bft)
18.07.2005 09:00 19,9 C 74 % 1012 hPa 0,0 l/m S-SW 6,3 km/h (2 Bft)
18.07.2005 10:00 23,0 C 62 % 1012 hPa 0,0 l/m NW 4,4 km/h (1 Bft)
18.07.2005 11:00 25,1 C 57 % 1012 hPa 0,0 l/m S-SW 0,6 km/h (0 Bft)
18.07.2005 12:00 25,4 C 58 % 1012 hPa 0,0 l/m N 6,2 km/h (2 Bft)
18.07.2005 13:00 27,4 C 49 % 1011 hPa 0,0 l/m SW 1,5 km/h (1 Bft)
18.07.2005 14:00 28,6 C 41 % 1010 hPa 0,0 l/m O-SO 1,8 km/h (1 Bft)
18.07.2005 15:00 26,1 C 54 % 1010 hPa 0,0 l/m W-SW 7,6 km/h (2 Bft)
18.07.2005 16:00 20,9 C 78 % 1012 hPa 1,0 l/m W 12,9 km/h (3 Bft)
18.07.2005 17:00 20,6 C 77 % 1013 hPa 0,0 l/m S-SO 3,1 km/h (1 Bft)
18.07.2005 18:00 19,4 C 89 % 1013 hPa 3,0 l/m S-SW 3,0 km/h (1 Bft)
18.07.2005 19:00 18,7 C 97 % 1013 hPa 1,0 l/m S 14,2 km/h (3 Bft)
18.07.2005 20:00 17,3 C 96 % 1013 hPa 0,0 l/m SW 17,2 km/h (3 Bft)
18.07.2005 21:00 16,5 C 94 % 1014 hPa 0,0 l/m S 11,3 km/h (2 Bft)
18.07.2005 22:00 16,2 C 94 % 1014 hPa 0,0 l/m S 9,5 km/h (2 Bft)
18.07.2005 23:00 16,1 C 95 % 1014 hPa 0,0 l/m S-SW 14,5 km/h (3 Bft)
19.07.2005 00:00 16,2 C 96 % 1014 hPa 0,0 l/m SW 16,6 km/h (3 Bft)
19.07.2005 01:00 16,4 C 95 % 1014 hPa 0,0 l/m SW 12,9 km/h (3 Bft)
19.07.2005 02:00 16,4 C 94 % 1014 hPa 0,0 l/m S-SW 8,1 km/h (2 Bft)
19.07.2005 03:00 16,1 C 95 % 1014 hPa 0,0 l/m S-SW 14,5 km/h (3 Bft)
19.07.2005 04:00 15,9 C 97 % 1015 hPa 0,0 l/m S-SW 13,9 km/h (3 Bft)
19.07.2005 05:00 15,8 C 95 % 1015 hPa 0,0 l/m SW 15,9 km/h (3 Bft)
19.07.2005 06:00 15,7 C 95 % 1016 hPa 0,0 l/m SW 15,0 km/h (3 Bft)
19.07.2005 07:00 16,0 C 93 % 1017 hPa 0,0 l/m SW 14,5 km/h (3 Bft)
19.07.2005 08:00 16,6 C 87 % 1017 hPa 0,0 l/m S-SW 15,7 km/h (3 Bft)
19.07.2005 09:00 17,1 C 82 % 1018 hPa 0,0 l/m W-SW 15,6 km/h (3 Bft)
19.07.2005 10:00 16,5 C 89 % 1018 hPa 1,0 l/m S-SW 12,8 km/h (3 Bft)
19.07.2005 11:00 18,0 C 81 % 1019 hPa 0,0 l/m SW 14,9 km/h (3 Bft)
19.07.2005 12:00 19,1 C 70 % 1019 hPa 0,0 l/m W-SW 16,1 km/h (3 Bft)
19.07.2005 13:00 20,6 C 57 % 1019 hPa 0,0 l/m W-SW 21,7 km/h (4 Bft)
19.07.2005 14:00 20,6 C 54 % 1019 hPa 0,0 l/m W-SW 21,8 km/h (4 Bft)
19.07.2005 15:00 21,3 C 50 % 1020 hPa 0,0 l/m W-SW 22,3 km/h (4 Bft)
19.07.2005 16:00 18,9 C 71 % 1020 hPa 1,0 l/m W 18,8 km/h (3 Bft)
19.07.2005 17:00 19,2 C 78 % 1021 hPa 0,0 l/m W 14,0 km/h (3 Bft)
19.07.2005 18:00 20,1 C 63 % 1021 hPa 0,0 l/m W 13,5 km/h (3 Bft)
19.07.2005 19:00 20,0 C 60 % 1022 hPa 0,0 l/m W 7,0 km/h (2 Bft)
19.07.2005 20:00 18,7 C 63 % 1023 hPa 0,0 l/m W 6,4 km/h (2 Bft)
19.07.2005 21:00 16,5 C 73 % 1023 hPa 0,0 l/m N 0,0 km/h (0 Bft)
19.07.2005 22:00 14,8 C 80 % 1024 hPa 0,0 l/m W 0,1 km/h (0 Bft)
19.07.2005 23:00 13,8 C 86 % 1024 hPa 0,0 l/m N 0,0 km/h (0 Bft)
20.07.2005 00:00 13,2 C 88 % 1024 hPa 0,0 l/m N 0,0 km/h (0 Bft)
20.07.2005 01:00 13,2 C 91 % 1025 hPa 0,0 l/m N 0,0 km/h (0 Bft)
20.07.2005 02:00 13,3 C 89 % 1025 hPa 0,0 l/m N 0,2 km/h (0 Bft)
20.07.2005 03:00 13,4 C 86 % 1025 hPa 0,0 l/m W-SW 0,2 km/h (0 Bft)
20.07.2005 04:00 13,6 C 81 % 1024 hPa 0,0 l/m W-SW 3,0 km/h (1 Bft)
20.07.2005 05:00 13,0 C 81 % 1024 hPa 0,0 l/m SW 1,2 km/h (1 Bft)
20.07.2005 06:00 12,6 C 87 % 1024 hPa 0,0 l/m S 4,6 km/h (1 Bft)
20.07.2005 07:00 14,1 C 83 % 1024 hPa 0,0 l/m S-SW 10,4 km/h (2 Bft)
20.07.2005 08:00 15,2 C 76 % 1024 hPa 0,0 l/m S-SW 10,0 km/h (2 Bft)
20.07.2005 09:00 16,6 C 65 % 1024 hPa 0,0 l/m W-SW 13,0 km/h (3 Bft)
20.07.2005 10:00 18,2 C 57 % 1024 hPa 0,0 l/m W-SW 14,3 km/h (3 Bft)
20.07.2005 11:00 18,8 C 53 % 1024 hPa 0,0 l/m W-SW 16,4 km/h (3 Bft)
20.07.2005 12:00 19,9 C 49 % 1023 hPa 0,0 l/m W-SW 18,3 km/h (3 Bft)
20.07.2005 13:00 20,7 C 47 % 1023 hPa 0,0 l/m W-SW 23,3 km/h (4 Bft)
20.07.2005 14:00 21,4 C 46 % 1022 hPa 0,0 l/m W-SW 18,5 km/h (3 Bft)
20.07.2005 15:00 20,9 C 45 % 1022 hPa 0,0 l/m W 20,6 km/h (4 Bft)
20.07.2005 16:00 21,2 C 45 % 1022 hPa 0,0 l/m W-SW 20,2 km/h (4 Bft)
20.07.2005 17:00 20,3 C 47 % 1022 hPa 0,0 l/m W-SW 19,2 km/h (3 Bft)
20.07.2005 18:00 19,7 C 50 % 1021 hPa 0,0 l/m SW 16,4 km/h (3 Bft)
20.07.2005 19:00 19,2 C 53 % 1021 hPa 0,0 l/m W-SW 12,3 km/h (3 Bft)
20.07.2005 20:00 18,7 C 55 % 1021 hPa 0,0 l/m SW 12,3 km/h (3 Bft)
20.07.2005 21:00 17,9 C 59 % 1021 hPa 0,0 l/m W-SW 14,1 km/h (3 Bft)
20.07.2005 22:00 17,5 C 61 % 1021 hPa 0,0 l/m SW 15,8 km/h (3 Bft)
20.07.2005 23:00 17,4 C 62 % 1021 hPa 0,0 l/m W-SW 15,3 km/h (3 Bft)
21.07.2005 00:00 16,3 C 73 % 1022 hPa 2,0 l/m N 16,0 km/h (3 Bft)
21.07.2005 01:00 13,2 C 93 % 1022 hPa 6,0 l/m W 16,4 km/h (3 Bft)
21.07.2005 02:00 13,2 C 97 % 1021 hPa 1,0 l/m W 8,5 km/h (2 Bft)
21.07.2005 03:00 13,4 C 98 % 1021 hPa 0,0 l/m S-SW 0,8 km/h (0 Bft)
21.07.2005 04:00 13,3 C 98 % 1021 hPa 0,0 l/m S-SW 4,1 km/h (1 Bft)
21.07.2005 05:00 12,5 C 99 % 1022 hPa 0,0 l/m S 5,8 km/h (2 Bft)
21.07.2005 06:00 12,1 C 100 % 1021 hPa 0,0 l/m S-SW 7,5 km/h (2 Bft)
21.07.2005 07:00 12,7 C 100 % 1022 hPa 0,0 l/m W-SW 9,7 km/h (2 Bft)
21.07.2005 08:00 13,7 C 98 % 1022 hPa 0,0 l/m SW 11,9 km/h (2 Bft)
21.07.2005 09:00 15,2 C 83 % 1021 hPa 0,0 l/m W-SW 12,4 km/h (3 Bft)
21.07.2005 10:00 16,6 C 73 % 1021 hPa 0,0 l/m SW 16,1 km/h (3 Bft)
21.07.2005 11:00 17,7 C 68 % 1020 hPa 0,0 l/m W-SW 15,8 km/h (3 Bft)
21.07.2005 12:00 18,9 C 61 % 1020 hPa 0,0 l/m S-SW 18,7 km/h (3 Bft)
21.07.2005 13:00 18,6 C 62 % 1019 hPa 0,0 l/m W-SW 13,3 km/h (3 Bft)
21.07.2005 14:00 19,6 C 58 % 1018 hPa 0,0 l/m W-SW 13,5 km/h (3 Bft)
21.07.2005 15:00 21,1 C 44 % 1017 hPa 0,0 l/m W 18,1 km/h (3 Bft)
21.07.2005 16:00 22,0 C 41 % 1017 hPa 0,0 l/m W 19,9 km/h (4 Bft)
21.07.2005 17:00 21,4 C 43 % 1017 hPa 0,0 l/m W-SW 13,8 km/h (3 Bft)
21.07.2005 18:00 21,3 C 42 % 1016 hPa 0,0 l/m W 15,4 km/h (3 Bft)
21.07.2005 19:00 21,3 C 42 % 1016 hPa 0,0 l/m W 13,1 km/h (3 Bft)
21.07.2005 20:00 19,0 C 51 % 1016 hPa 0,0 l/m W 8,9 km/h (2 Bft)
21.07.2005 21:00 17,1 C 59 % 1017 hPa 0,0 l/m W-SW 2,9 km/h (1 Bft)
21.07.2005 22:00 15,8 C 65 % 1017 hPa 0,0 l/m W 7,4 km/h (2 Bft)
21.07.2005 23:00 14,8 C 68 % 1017 hPa 0,0 l/m W-SW 1,7 km/h (1 Bft)
22.07.2005 00:00 13,2 C 76 % 1017 hPa 0,0 l/m N 0,0 km/h (0 Bft)
22.07.2005 01:00 12,1 C 82 % 1017 hPa 0,0 l/m N 0,0 km/h (0 Bft)
22.07.2005 02:00 11,8 C 86 % 1016 hPa 0,0 l/m S-SW 1,2 km/h (1 Bft)
22.07.2005 03:00 11,9 C 86 % 1016 hPa 0,0 l/m S-SW 1,9 km/h (1 Bft)
22.07.2005 04:00 12,7 C 83 % 1016 hPa 0,0 l/m S 4,0 km/h (1 Bft)
22.07.2005 05:00 11,8 C 85 % 1015 hPa 0,0 l/m W-SW 2,2 km/h (1 Bft)
22.07.2005 06:00 12,1 C 87 % 1015 hPa 0,0 l/m S 0,6 km/h (0 Bft)
22.07.2005 07:00 12,5 C 88 % 1015 hPa 0,0 l/m N 0,0 km/h (0 Bft)
22.07.2005 08:00 13,5 C 87 % 1015 hPa 0,0 l/m W-SW 0,9 km/h (0 Bft)
22.07.2005 09:00 15,9 C 73 % 1015 hPa 0,0 l/m W 11,4 km/h (2 Bft)
22.07.2005 10:00 17,1 C 65 % 1015 hPa 0,0 l/m W 13,8 km/h (3 Bft)
22.07.2005 11:00 17,9 C 59 % 1015 hPa 0,0 l/m W 16,4 km/h (3 Bft)
22.07.2005 12:00 18,3 C 56 % 1015 hPa 0,0 l/m W 14,9 km/h (3 Bft)
22.07.2005 13:00 18,3 C 53 % 1014 hPa 0,0 l/m W 13,0 km/h (3 Bft)
22.07.2005 14:00 18,9 C 50 % 1014 hPa 0,0 l/m W 14,8 km/h (3 Bft)
22.07.2005 15:00 19,8 C 48 % 1014 hPa 0,0 l/m W 15,7 km/h (3 Bft)
22.07.2005 16:00 20,8 C 45 % 1014 hPa 0,0 l/m W 15,3 km/h (3 Bft)
22.07.2005 17:00 20,9 C 44 % 1013 hPa 0,0 l/m W 15,1 km/h (3 Bft)
22.07.2005 18:00 19,6 C 47 % 1013 hPa 0,0 l/m W-NW 12,2 km/h (2 Bft)
22.07.2005 19:00 18,5 C 51 % 1013 hPa 0,0 l/m W-NW 14,9 km/h (3 Bft)
22.07.2005 20:00 17,0 C 60 % 1014 hPa 0,0 l/m NW 7,0 km/h (2 Bft)
22.07.2005 21:00 15,3 C 69 % 1014 hPa 0,0 l/m W 0,1 km/h (0 Bft)
22.07.2005 22:00 14,0 C 75 % 1014 hPa 0,0 l/m W-SW 0,6 km/h (0 Bft)
22.07.2005 23:00 14,3 C 75 % 1014 hPa 0,0 l/m W-SW 6,6 km/h (2 Bft)
23.07.2005 00:00 14,4 C 72 % 1014 hPa 0,0 l/m W-SW 8,3 km/h (2 Bft)
23.07.2005 01:00 14,2 C 71 % 1014 hPa 0,0 l/m W-SW 8,8 km/h (2 Bft)
23.07.2005 02:00 14,0 C 70 % 1014 hPa 0,0 l/m W-SW 7,9 km/h (2 Bft)
23.07.2005 03:00 14,1 C 71 % 1013 hPa 0,0 l/m W-SW 2,7 km/h (1 Bft)
23.07.2005 04:00 13,7 C 78 % 1013 hPa 0,0 l/m SO 0,8 km/h (0 Bft)
23.07.2005 05:00 13,4 C 83 % 1013 hPa 0,0 l/m SO 0,6 km/h (0 Bft)
23.07.2005 06:00 13,3 C 85 % 1013 hPa 0,0 l/m N 0,0 km/h (0 Bft)
23.07.2005 07:00 13,4 C 86 % 1012 hPa 0,0 l/m N 0,0 km/h (0 Bft)
23.07.2005 08:00 13,9 C 86 % 1013 hPa 0,0 l/m S-SO 1,1 km/h (1 Bft)
23.07.2005 09:00 15,3 C 79 % 1013 hPa 0,0 l/m S 6,1 km/h (2 Bft)
23.07.2005 10:00 17,5 C 67 % 1013 hPa 0,0 l/m S 9,4 km/h (2 Bft)
23.07.2005 11:00 19,0 C 57 % 1012 hPa 0,0 l/m S 11,4 km/h (2 Bft)
23.07.2005 12:00 19,4 C 54 % 1012 hPa 0,0 l/m W 8,8 km/h (2 Bft)
23.07.2005 13:00 19,5 C 53 % 1012 hPa 0,0 l/m W 6,7 km/h (2 Bft)
23.07.2005 14:00 19,6 C 54 % 1012 hPa 0,0 l/m W 5,3 km/h (1 Bft)
23.07.2005 15:00 17,6 C 73 % 1012 hPa 1,0 l/m W 4,6 km/h (1 Bft)
23.07.2005 16:00 18,5 C 75 % 1012 hPa 0,0 l/m W-SW 4,7 km/h (1 Bft)
23.07.2005 17:00 19,9 C 63 % 1012 hPa 0,0 l/m W 4,8 km/h (1 Bft)
23.07.2005 18:00 20,7 C 54 % 1012 hPa 0,0 l/m W-SW 4,3 km/h (1 Bft)
23.07.2005 19:00 18,8 C 63 % 1011 hPa 0,0 l/m W-SW 6,7 km/h (2 Bft)
23.07.2005 20:00 17,6 C 66 % 1012 hPa 0,0 l/m W-SW 2,1 km/h (1 Bft)
23.07.2005 21:00 15,5 C 75 % 1012 hPa 0,0 l/m W 1,5 km/h (1 Bft)
23.07.2005 22:00 14,1 C 82 % 1012 hPa 0,0 l/m N 0,0 km/h (0 Bft)
23.07.2005 23:00 13,2 C 86 % 1012 hPa 0,0 l/m N 0,0 km/h (0 Bft)
24.07.2005 00:00 12,7 C 90 % 1012 hPa 0,0 l/m N 0,0 km/h (0 Bft)
24.07.2005 01:00 12,5 C 93 % 1012 hPa 0,0 l/m N 0,0 km/h (0 Bft)
24.07.2005 02:00 12,3 C 95 % 1012 hPa 0,0 l/m N 0,0 km/h (0 Bft)
24.07.2005 03:00 12,2 C 96 % 1012 hPa 0,0 l/m N 0,0 km/h (0 Bft)
24.07.2005 04:00 12,2 C 96 % 1012 hPa 0,0 l/m N 0,0 km/h (0 Bft)
24.07.2005 05:00 12,6 C 97 % 1012 hPa 0,0 l/m NW 1,9 km/h (1 Bft)
24.07.2005 06:00 13,1 C 98 % 1012 hPa 1,0 l/m N 0,1 km/h (0 Bft)
24.07.2005 07:00 13,4 C 99 % 1012 hPa 0,0 l/m N 0,0 km/h (0 Bft)
24.07.2005 08:00 14,1 C 99 % 1012 hPa 0,0 l/m SO 0,4 km/h (0 Bft)
24.07.2005 09:00 15,3 C 97 % 1012 hPa 0,0 l/m O-SO 6,3 km/h (2 Bft)
24.07.2005 10:00 17,0 C 85 % 1012 hPa 0,0 l/m S-SO 7,6 km/h (2 Bft)
24.07.2005 11:00 18,0 C 80 % 1012 hPa 0,0 l/m S 10,9 km/h (2 Bft)
24.07.2005 12:00 18,1 C 78 % 1012 hPa 0,0 l/m S 8,6 km/h (2 Bft)
24.07.2005 13:00 19,5 C 71 % 1012 hPa 0,0 l/m S 10,2 km/h (2 Bft)
24.07.2005 14:00 21,0 C 60 % 1012 hPa 0,0 l/m S-SO 9,6 km/h (2 Bft)
24.07.2005 15:00 21,6 C 52 % 1011 hPa 0,0 l/m S 10,9 km/h (2 Bft)
24.07.2005 16:00 21,4 C 52 % 1012 hPa 0,0 l/m W-SW 11,3 km/h (2 Bft)
24.07.2005 17:00 19,6 C 67 % 1012 hPa 0,0 l/m W-SW 3,4 km/h (1 Bft)
24.07.2005 18:00 18,5 C 80 % 1012 hPa 0,0 l/m N 0,0 km/h (0 Bft)
24.07.2005 19:00 17,8 C 86 % 1012 hPa 0,0 l/m S 0,0 km/h (0 Bft)
24.07.2005 20:00 17,2 C 88 % 1012 hPa 0,0 l/m S 1,5 km/h (1 Bft)
24.07.2005 21:00 16,8 C 89 % 1012 hPa 0,0 l/m O-NO 0,5 km/h (0 Bft)
24.07.2005 22:00 16,3 C 94 % 1012 hPa 0,0 l/m S-SW 2,2 km/h (1 Bft)
24.07.2005 23:00 15,9 C 95 % 1012 hPa 1,0 l/m S-SW 2,7 km/h (1 Bft)
Min-Datum _ 22.07.05 18.07.05 18.07.05 - - 18.07.05
_ Min-Zeit 05:31 14:40 14:44 - - 00:00
Minimum _ 11,5 C 38 % 1009 hPa - - 0,0 km/h (0 Bft)
Max-Datum _ 18.07.05 21.07.05 20.07.05 21.07.05 - 18.07.05
_ Max-Zeit 14:31 05:01 01:00 01:14 - 15:58
Maximum _ 29,1 C 100 % 1025 hPa 6,0 l/m - 51,4 km/h
W-SW (7 Bft)
Durchschnitt _ 17,1 C 73 % 1016 hPa #19,0 l/m W-SW 8,2 km/h (2 Bft)

Durchschnitt Minimum Temp.16,5 C
Durchschnitt Maximum Temp.17,5 C